Etusivu
METAR-TAF:

METAR-TAF

Lentoasemat :

Lytton, Brittiläinen Kolumbia, Kanada

Leveyspiiri: 50-14N, Pituuspiiri: 121-35W, korkeus merenpinnasta: 229 m

Tämänhetkinen sää

Tämä raportti tehtiin 18 minuuttia sitten, kello 13.00 UTC
tyyntä
Lämpötila 4°C
Kosteus 93%
Ilmanpaine 1023 hPa
Näkyvyys: 14.5 km
Pilvistä 1900 ft:n korkeudessa

METAR: CWLY 131300Z AUTO 00000KT 9SM OVC019 04/03 A3021 RMK SLP238

Aika: 05:18 (13:18 UTC)


TAF: puuttuu

Säähavainnot ja -ennusteet yli 4000 lentoasemalta (METAR- ja TAF-raportit).

Käytössä olevat sääasemat on merkitty karttaan keltaisilla ja punaisilla pisteillä.

Aseta hiiri pisteen päälle nähdäksesi sääaseman nimen.

Klikkaa sitten nähdäksesi säähavainnot ja -ennusteet.

Kartan vaihtaminen: klikkaa mustalla rastilla varustettuja vihreitä pisteitä, niin voit zoomata sisään; viivalla varustettua vihreää pistettä, niin voit zoomata ulos tai vihreitä nuolia, niin pääset viereisille kartoille.


METAR-TAF: